Time;durP1;ratioP1;P1;durP2;ratioP2;P2;SDS_P1;SDS_P2;PMS_P1;PMS_P2;Temp;Humidity;BMP_temperature;BMP_pressure;BME280_temperature;BME280_humidity;BME280_pressure;Samples;Min_cycle;Max_cycle;Signal;HPM_P1;HPM_P2
2023/03/28 00:00:35;;;;;;;5.77;2.70;;;;;;;2.21;98.86;96946.16;5073591;28;20223;-67
2023/03/28 00:03:01;;;;;;;9.30;3.17;;;;;;;2.12;99.09;96948.59;5073539;28;20956;-67
2023/03/28 00:05:28;;;;;;;5.27;2.60;;;;;;;2.16;98.44;96947.44;5072811;28;20205;-68
2023/03/28 00:07:55;;;;;;;3.93;2.37;;;;;;;2.21;99.03;96953.16;5074104;28;20215;-71
2023/03/28 00:10:22;;;;;;;6.20;2.67;;;;;;;2.12;100.00;96957.22;5073705;28;20209;-69
2023/03/28 00:12:48;;;;;;;6.60;2.60;;;;;;;2.09;98.07;96956.63;5073348;28;20241;-71
2023/03/28 00:15:16;;;;;;;4.13;2.43;;;;;;;2.21;99.68;96953.16;5073506;28;20207;-68
2023/03/28 00:17:43;;;;;;;5.93;2.90;;;;;;;1.94;100.00;96957.72;5073142;28;20216;-68
2023/03/28 00:20:11;;;;;;;7.83;2.67;;;;;;;2.05;99.66;96960.34;5073930;28;20924;-67
2023/03/28 00:22:38;;;;;;;5.83;2.97;;;;;;;1.79;99.62;96961.38;5073214;28;20600;-70
2023/03/28 00:25:05;;;;;;;12.73;3.27;;;;;;;1.82;100.00;96963.78;5072952;28;20208;-70
2023/03/28 00:27:32;;;;;;;4.27;2.70;;;;;;;1.62;100.00;96964.31;5073260;28;20228;-69
2023/03/28 00:29:58;;;;;;;5.50;3.23;;;;;;;1.59;100.00;96968.88;5078477;28;20280;-65
2023/03/28 00:32:26;;;;;;;9.00;3.63;;;;;;;1.69;100.00;96967.31;5078514;28;20220;-66
2023/03/28 00:34:53;;;;;;;10.00;3.10;;;;;;;1.54;100.00;96966.59;5063838;28;20220;-65
2023/03/28 00:37:21;;;;;;;6.07;2.60;;;;;;;1.44;100.00;96973.34;5065400;28;20606;-67
2023/03/28 00:39:49;;;;;;;7.47;2.60;;;;;;;1.33;100.00;96973.25;5065562;28;20202;-67
2023/03/28 00:42:16;;;;;;;9.93;2.80;;;;;;;1.54;100.00;96977.00;5064696;28;20247;-69
2023/03/28 00:44:45;;;;;;;9.00;2.80;;;;;;;1.56;100.00;96975.09;5064119;28;20693;-67
2023/03/28 00:47:19;;;;;;;4.33;2.80;;;;;;;1.59;100.00;96974.91;5065029;28;20212;-69
2023/03/28 00:49:49;;;;;;;15.90;3.10;;;;;;;1.62;100.00;96979.91;5065572;28;20217;-65
2023/03/28 00:52:17;;;;;;;5.77;2.83;;;;;;;1.70;100.00;96975.00;5065242;28;20264;-66
2023/03/28 00:54:45;;;;;;;5.63;2.27;;;;;;;1.64;99.69;96980.59;5064155;28;20216;-68
2023/03/28 00:57:15;;;;;;;8.40;2.77;;;;;;;1.77;99.79;96981.44;5065311;28;20203;-66
2023/03/28 00:59:42;;;;;;;5.10;2.43;;;;;;;1.86;98.12;96991.19;5065222;28;20234;-67
2023/03/28 01:02:09;;;;;;;3.73;2.40;;;;;;;1.72;96.48;96987.88;5065572;28;20224;-64
2023/03/28 01:04:40;;;;;;;4.43;2.10;;;;;;;1.92;98.11;96990.75;5063627;28;20207;-66
2023/03/28 01:07:08;;;;;;;5.53;2.60;;;;;;;1.97;97.32;96996.47;5065195;28;20208;-68
2023/03/28 01:09:36;;;;;;;10.73;3.10;;;;;;;1.97;96.71;96996.47;5066060;28;20205;-69
2023/03/28 01:12:03;;;;;;;8.43;3.07;;;;;;;1.76;99.45;97003.16;5065366;28;20223;-66
2023/03/28 01:14:30;;;;;;;3.33;2.13;;;;;;;1.65;99.10;97008.25;5064439;28;20675;-66
2023/03/28 01:16:56;;;;;;;8.37;3.20;;;;;;;1.74;99.29;96999.81;5064735;28;20220;-65
2023/03/28 01:19:34;;;;;;;5.33;2.40;;;;;;;1.89;97.74;96996.16;5064574;28;20202;-69
2023/03/28 01:22:37;;;;;;;3.93;2.33;;;;;;;1.94;98.26;97002.69;5064187;28;20252;-66
2023/03/28 01:25:42;;;;;;;3.60;2.33;;;;;;;1.91;98.78;97004.72;5063795;28;20216;-68
2023/03/28 01:28:22;;;;;;;18.27;2.87;;;;;;;1.67;99.03;97010.72;5064840;28;20207;-69
2023/03/28 01:31:19;;;;;;;3.10;2.30;;;;;;;1.79;97.82;97005.53;5064836;28;20204;-69
2023/03/28 01:34:13;;;;;;;11.03;2.83;;;;;;;1.75;99.11;97014.47;5063298;28;20237;-67
2023/03/28 01:37:10;;;;;;;6.53;3.10;;;;;;;1.77;97.46;97010.03;5050267;28;20204;-69
2023/03/28 01:39:47;;;;;;;10.67;3.17;;;;;;;1.80;98.32;97015.00;5064296;28;20214;-68
2023/03/28 01:42:26;;;;;;;4.63;2.37;;;;;;;1.76;98.73;97013.56;5066054;28;20223;-67
2023/03/28 01:45:03;;;;;;;7.10;2.17;;;;;;;1.64;97.64;97022.16;5062812;28;20218;-66
2023/03/28 01:47:37;;;;;;;8.80;2.70;;;;;;;1.65;98.17;97023.00;5064673;28;20210;-70
2023/03/28 01:50:12;;;;;;;11.33;2.77;;;;;;;1.65;97.96;97013.44;5065221;28;20206;-68
2023/03/28 01:52:47;;;;;;;15.23;2.97;;;;;;;1.77;97.41;97023.00;5064870;28;20232;-67
2023/03/28 01:55:21;;;;;;;7.73;2.97;;;;;;;1.78;96.80;97019.44;5063816;28;20244;-69
2023/03/28 01:57:58;;;;;;;10.67;2.43;;;;;;;1.70;96.06;97026.94;5065758;28;20203;-69
2023/03/28 02:00:29;;;;;;;2.80;2.03;;;;;;;1.78;95.87;97029.84;5064537;28;20205;-65
2023/03/28 02:03:01;;;;;;;3.13;1.50;;;;;;;1.65;96.36;97034.22;5065155;28;20226;-65
2023/03/28 02:05:30;;;;;;;7.53;2.83;;;;;;;1.64;96.81;97042.94;5065045;28;20204;-65
2023/03/28 02:08:00;;;;;;;8.00;2.23;;;;;;;1.62;96.38;97039.63;5065171;28;20676;-66
2023/03/28 02:10:30;;;;;;;5.57;2.70;;;;;;;1.59;95.69;97036.41;5064408;28;20202;-68
2023/03/28 02:12:59;;;;;;;3.83;2.20;;;;;;;1.46;97.37;97036.38;5064918;28;20233;-65
2023/03/28 02:15:28;;;;;;;10.17;3.20;;;;;;;1.38;99.11;97040.44;5063494;28;20201;-65
2023/03/28 02:18:01;;;;;;;2.67;2.10;;;;;;;1.46;97.15;97043.34;5064256;28;20208;-67
2023/03/28 02:20:31;;;;;;;3.10;1.87;;;;;;;1.39;97.06;97042.94;5064047;28;20201;-69
2023/03/28 02:23:03;;;;;;;5.23;2.13;;;;;;;1.40;98.52;97044.63;5064673;28;20243;-66
2023/03/28 02:25:31;;;;;;;2.10;1.80;;;;;;;1.39;97.08;97040.34;5063552;28;20200;-65
2023/03/28 02:28:01;;;;;;;7.43;3.37;;;;;;;1.54;96.81;97041.91;5065241;28;20236;-68
2023/03/28 02:30:28;;;;;;;3.03;1.80;;;;;;;1.32;97.14;97041.69;5064607;28;20586;-66
2023/03/28 02:32:59;;;;;;;3.23;2.00;;;;;;;1.59;96.15;97050.25;5064786;28;20636;-66
2023/03/28 02:35:32;;;;;;;4.27;2.33;;;;;;;1.52;96.40;97048.97;5064285;28;20204;-67
2023/03/28 02:38:07;;;;;;;10.13;3.30;;;;;;;1.59;96.48;97045.03;5063828;28;20208;-69
2023/03/28 02:40:46;;;;;;;12.57;2.63;;;;;;;1.64;95.58;97040.34;5064442;28;21069;-67
2023/03/28 02:43:46;;;;;;;6.90;2.73;;;;;;;1.75;94.73;97040.47;5065126;28;20230;-69
2023/03/28 02:46:20;;;;;;;3.20;2.20;;;;;;;1.64;95.15;97044.72;5064424;28;20229;-66
2023/03/28 02:49:10;;;;;;;7.83;2.33;;;;;;;1.78;94.51;97042.00;5061410;28;20680;-69
2023/03/28 02:51:45;;;;;;;16.07;3.17;;;;;;;1.77;94.54;97041.19;5063323;28;20232;-68
2023/03/28 02:54:25;;;;;;;4.53;2.60;;;;;;;1.81;94.72;97040.06;5064681;28;20230;-69
2023/03/28 02:57:00;;;;;;;6.80;2.80;;;;;;;1.68;95.33;97052.22;5063462;28;20205;-69
2023/03/28 02:59:33;;;;;;;16.80;3.13;;;;;;;1.66;95.02;97051.47;5062906;28;20211;-67
2023/03/28 03:02:01;;;;;;;6.50;3.00;;;;;;;1.58;94.64;97056.34;5063410;28;20225;-68
2023/03/28 03:04:28;;;;;;;6.37;3.30;;;;;;;1.57;95.49;97051.28;5062325;28;20211;-69
2023/03/28 03:06:54;;;;;;;4.23;2.20;;;;;;;1.51;94.25;97057.69;5062463;28;20208;-64
2023/03/28 03:09:22;;;;;;;10.87;3.00;;;;;;;1.56;94.32;97058.22;5063466;28;20228;-69
2023/03/28 03:11:49;;;;;;;11.00;3.00;;;;;;;1.52;95.30;97046.38;5062357;28;20229;-66
2023/03/28 03:14:15;;;;;;;9.50;3.00;;;;;;;1.47;95.51;97048.44;5062084;28;20249;-64
2023/03/28 03:16:42;;;;;;;6.97;2.60;;;;;;;1.32;96.36;97054.69;5062631;28;20225;-69
2023/03/28 03:19:08;;;;;;;33.33;11.97;;;;;;;1.34;97.39;97049.38;5062980;28;20211;-69
2023/03/28 03:21:35;;;;;;;29.90;11.80;;;;;;;1.30;96.55;97047.94;5063233;28;20232;-67
2023/03/28 03:24:03;;;;;;;31.83;10.47;;;;;;;1.29;97.11;97060.06;5063460;28;20201;-67
2023/03/28 03:26:31;;;;;;;71.77;24.37;;;;;;;1.47;97.77;97053.63;5064261;28;20212;-67
2023/03/28 03:28:59;;;;;;;47.93;19.77;;;;;;;1.43;98.69;97051.38;5063907;28;20213;-66
2023/03/28 03:31:26;;;;;;;16.47;7.27;;;;;;;1.59;97.22;97052.84;5063528;28;20223;-67
2023/03/28 03:33:52;;;;;;;8.60;3.73;;;;;;;1.62;96.13;97049.19;5062582;28;20227;-65
2023/03/28 03:36:19;;;;;;;12.97;4.00;;;;;;;1.65;96.84;97049.00;5063118;28;20291;-68
2023/03/28 03:38:46;;;;;;;9.50;3.63;;;;;;;1.65;96.30;97047.19;5063237;28;20323;-67
2023/03/28 03:43:44;;;;;;;8.00;3.40;;;;;;;1.85;95.01;97052.72;5059840;27;20549;-68
2023/03/28 03:46:10;;;;;;;15.43;4.83;;;;;;;1.54;97.17;97048.88;5060706;28;20217;-68
2023/03/28 03:48:37;;;;;;;6.40;3.83;;;;;;;1.61;96.56;97047.53;5060212;28;20210;-66
2023/03/28 03:51:04;;;;;;;7.03;3.53;;;;;;;1.62;96.60;97044.81;5059856;28;20204;-69
2023/03/28 03:53:30;;;;;;;8.57;4.83;;;;;;;1.59;95.45;97045.03;5059855;28;20234;-65
2023/03/28 03:56:00;;;;;;;6.00;2.47;;;;;;;1.80;95.17;97052.19;5059218;28;20236;-65
2023/03/28 03:58:26;;;;;;;8.30;3.20;;;;;;;1.68;95.74;97047.03;5059526;28;20326;-68
2023/03/28 04:00:54;;;;;;;6.53;2.93;;;;;;;1.67;96.52;97050.53;5060127;28;20760;-66
2023/03/28 04:03:21;;;;;;;8.20;3.17;;;;;;;1.48;96.32;97054.50;5058861;28;20217;-67
2023/03/28 04:05:47;;;;;;;12.13;3.63;;;;;;;1.49;97.19;97054.38;5059098;28;20683;-65
2023/03/28 04:08:14;;;;;;;3.53;1.97;;;;;;;1.47;96.09;97058.00;5060496;28;20204;-69
2023/03/28 04:10:41;;;;;;;6.37;2.53;;;;;;;1.50;94.94;97056.06;5059969;28;20291;-68
2023/03/28 04:13:08;;;;;;;10.60;3.60;;;;;;;1.63;95.20;97056.88;5058714;28;20267;-66
2023/03/28 04:15:34;;;;;;;7.47;3.07;;;;;;;1.50;95.49;97050.84;5058892;28;20223;-68
2023/03/28 04:18:03;;;;;;;6.03;3.13;;;;;;;1.64;95.50;97060.31;5058715;28;20265;-66
2023/03/28 04:20:30;;;;;;;4.87;2.83;;;;;;;1.56;95.13;97063.41;5058415;28;20200;-68
2023/03/28 04:22:57;;;;;;;3.93;2.20;;;;;;;1.61;94.15;97058.75;5058787;28;20277;-65
2023/03/28 04:25:24;;;;;;;14.93;2.90;;;;;;;1.66;94.63;97064.47;5058344;28;21066;-64
2023/03/28 04:27:53;;;;;;;6.77;3.37;;;;;;;1.63;94.82;97067.28;5058626;28;20208;-64
2023/03/28 04:30:20;;;;;;;11.97;3.77;;;;;;;1.58;95.56;97064.16;5057787;28;20208;-66
2023/03/28 04:32:49;;;;;;;6.17;3.57;;;;;;;1.55;95.25;97068.72;5059525;28;20242;-64
2023/03/28 04:35:17;;;;;;;8.50;3.33;;;;;;;1.63;95.59;97071.63;5058257;28;20208;-64
2023/03/28 04:37:43;;;;;;;8.77;3.73;;;;;;;1.55;94.95;97079.09;5059036;28;20210;-69
2023/03/28 04:40:10;;;;;;;8.03;3.47;;;;;;;1.55;94.04;97082.50;5057533;28;20228;-68
2023/03/28 04:42:37;;;;;;;7.10;3.70;;;;;;;1.39;95.29;97084.47;5059314;28;20237;-68
2023/03/28 04:45:05;;;;;;;6.20;3.13;;;;;;;1.45;96.17;97085.84;5058068;28;20211;-65
2023/03/28 04:47:31;;;;;;;9.77;4.80;;;;;;;1.49;95.29;97090.75;5058061;28;20200;-65
2023/03/28 04:49:58;;;;;;;11.80;5.47;;;;;;;1.48;95.31;97089.06;5058792;28;20200;-68
2023/03/28 04:52:26;;;;;;;11.70;5.07;;;;;;;1.65;94.23;97095.75;5058199;28;20231;-64
2023/03/28 04:54:53;;;;;;;11.17;5.00;;;;;;;1.43;95.05;97093.72;5046223;28;20559;-66
2023/03/28 04:57:19;;;;;;;14.60;5.23;;;;;;;1.43;96.02;97095.50;5046058;28;20206;-65
2023/03/28 04:59:46;;;;;;;9.33;4.30;;;;;;;1.45;96.23;97099.66;5045392;28;20227;-68
2023/03/28 05:02:12;;;;;;;11.37;4.97;;;;;;;1.53;95.60;97106.97;5045397;28;20223;-65
2023/03/28 05:04:39;;;;;;;10.23;4.17;;;;;;;1.50;95.50;97105.38;5045432;28;20216;-68
2023/03/28 05:07:06;;;;;;;9.33;4.53;;;;;;;1.50;95.49;97108.00;5044855;28;20258;-65
2023/03/28 05:09:35;;;;;;;14.43;4.03;;;;;;;1.60;94.75;97114.22;5044620;28;20692;-64
2023/03/28 05:12:01;;;;;;;8.50;4.40;;;;;;;1.40;95.53;97112.13;5044644;28;20232;-66
2023/03/28 05:14:28;;;;;;;7.23;3.67;;;;;;;1.22;95.69;97115.06;5044093;28;20203;-68
2023/03/28 05:16:54;;;;;;;13.70;4.13;;;;;;;1.21;97.21;97119.44;5043677;28;20212;-68
2023/03/28 05:19:21;;;;;;;8.20;4.33;;;;;;;1.21;98.15;97114.25;5049087;28;20201;-66
2023/03/28 05:21:48;;;;;;;10.17;4.63;;;;;;;1.34;97.15;97122.06;5049162;28;20638;-68
2023/03/28 05:24:14;;;;;;;14.98;6.15;;;;;;;0.77;99.12;97125.78;5045309;28;20454;-67
2023/03/28 05:26:42;;;;;;;9.30;4.20;;;;;;;0.89;99.47;97130.22;5048068;28;20212;-65
2023/03/28 05:29:09;;;;;;;9.87;4.17;;;;;;;0.87;97.87;97141.63;5044551;28;20201;-67
2023/03/28 05:31:35;;;;;;;15.87;4.77;;;;;;;0.83;98.45;97142.75;5042748;28;20273;-66
2023/03/28 05:34:02;;;;;;;6.23;3.33;;;;;;;0.88;97.00;97144.13;5042884;28;20235;-66
2023/03/28 05:36:29;;;;;;;5.53;2.90;;;;;;;0.89;92.57;97148.41;5044987;28;20751;-69
2023/03/28 05:38:55;;;;;;;9.33;4.27;;;;;;;0.89;93.57;97144.94;5045036;28;20217;-68
2023/03/28 05:41:22;;;;;;;14.97;4.53;;;;;;;0.92;94.27;97155.16;5044999;28;20214;-65
2023/03/28 05:43:50;;;;;;;9.00;4.07;;;;;;;1.00;96.18;97155.50;5045775;28;20912;-68
2023/03/28 05:46:16;;;;;;;8.47;3.30;;;;;;;0.88;94.49;97153.66;5044939;28;20592;-65
2023/03/28 05:48:43;;;;;;;7.73;3.53;;;;;;;0.88;94.93;97151.06;5044535;28;20242;-67
2023/03/28 05:51:09;;;;;;;8.13;3.40;;;;;;;0.92;96.18;97149.97;5044821;28;20229;-65
2023/03/28 05:53:36;;;;;;;11.93;4.03;;;;;;;0.97;95.04;97155.66;5044252;28;20231;-65
2023/03/28 05:56:02;;;;;;;13.20;4.20;;;;;;;0.98;94.38;97154.75;5043908;28;20211;-68
2023/03/28 05:58:30;;;;;;;6.77;3.90;;;;;;;0.93;95.64;97164.56;5043524;28;20204;-65
2023/03/28 06:00:59;;;;;;;9.60;5.23;;;;;;;1.09;96.38;97167.88;5043063;28;20291;-65
2023/03/28 06:03:26;;;;;;;9.50;4.27;;;;;;;1.06;95.25;97162.88;5043833;28;20254;-64
2023/03/28 06:05:53;;;;;;;8.70;4.10;;;;;;;1.15;96.49;97170.09;5041114;28;20202;-65
2023/03/28 06:08:19;;;;;;;18.47;3.73;;;;;;;1.27;97.13;97168.38;5041659;28;20744;-65
2023/03/28 06:10:47;;;;;;;6.60;3.10;;;;;;;1.38;96.37;97170.28;5043374;28;20205;-65
2023/03/28 06:13:14;;;;;;;4.73;2.97;;;;;;;1.47;96.13;97169.69;5043873;28;20221;-65
2023/03/28 06:15:40;;;;;;;14.07;7.03;;;;;;;1.60;95.52;97171.34;5044561;28;20198;-64
2023/03/28 06:18:08;;;;;;;10.97;4.00;;;;;;;1.71;95.44;97174.09;5045366;28;20205;-67
2023/03/28 06:20:35;;;;;;;9.43;4.20;;;;;;;1.72;94.66;97175.75;5043766;28;20203;-63
2023/03/28 06:23:02;;;;;;;2.63;1.77;;;;;;;1.78;94.73;97179.72;5045802;28;20220;-65
2023/03/28 06:25:29;;;;;;;4.57;2.60;;;;;;;1.82;94.53;97182.84;5046393;28;20195;-64
2023/03/28 06:27:56;;;;;;;4.00;2.03;;;;;;;1.96;94.09;97179.31;5045026;28;21144;-64
2023/03/28 06:30:23;;;;;;;6.17;2.00;;;;;;;1.98;93.37;97177.47;5048862;28;20214;-66
2023/03/28 06:32:49;;;;;;;9.80;3.70;;;;;;;1.91;92.97;97191.81;5046607;28;20685;-67
2023/03/28 06:35:17;;;;;;;3.63;2.00;;;;;;;2.03;93.36;97184.00;5036384;28;20786;-67
2023/03/28 06:37:44;;;;;;;5.90;2.40;;;;;;;2.08;92.47;97194.09;5041596;28;20208;-64
2023/03/28 06:40:11;;;;;;;6.30;2.40;;;;;;;2.08;91.99;97204.50;5049826;28;20236;-66
2023/03/28 06:42:37;;;;;;;3.47;2.20;;;;;;;2.08;92.12;97194.09;5039864;28;20239;-67
2023/03/28 06:45:04;;;;;;;5.67;2.03;;;;;;;2.04;91.03;97203.06;5036763;28;20211;-67
2023/03/28 06:47:31;;;;;;;5.33;2.40;;;;;;;2.20;91.00;97199.31;5036655;28;20199;-67
2023/03/28 06:49:57;;;;;;;4.13;2.67;;;;;;;2.26;94.22;97198.88;5036758;28;20208;-67
2023/03/28 06:52:25;;;;;;;6.90;2.40;;;;;;;2.39;95.59;97199.72;5037067;28;20223;-67
2023/03/28 06:54:52;;;;;;;1.93;1.57;;;;;;;2.43;94.21;97198.56;5036372;28;20209;-67
2023/03/28 06:57:18;;;;;;;2.33;1.90;;;;;;;2.48;92.78;97199.09;5037433;28;20270;-67
2023/03/28 06:59:45;;;;;;;2.40;1.63;;;;;;;2.67;92.82;97207.28;5036806;28;20847;-67
2023/03/28 07:02:11;;;;;;;12.80;3.47;;;;;;;2.63;93.04;97204.06;5035788;28;20700;-67
2023/03/28 07:04:38;;;;;;;7.53;2.43;;;;;;;2.64;92.02;97210.13;5036563;28;20207;-67
2023/03/28 07:07:04;;;;;;;4.73;2.20;;;;;;;2.86;91.97;97205.91;5037106;28;20285;-67
2023/03/28 07:09:32;;;;;;;7.53;2.27;;;;;;;2.81;89.66;97217.59;5036526;28;20203;-67
2023/03/28 07:11:59;;;;;;;6.13;2.23;;;;;;;2.92;90.04;97226.31;5036541;28;20235;-67
2023/03/28 07:14:26;;;;;;;3.93;2.13;;;;;;;2.74;87.33;97217.19;5036271;28;20224;-67
2023/03/28 07:16:52;;;;;;;7.23;2.23;;;;;;;2.88;85.77;97214.44;5035610;28;20216;-67
2023/03/28 07:19:18;;;;;;;4.37;1.90;;;;;;;2.87;84.25;97223.19;5036400;28;20200;-67
2023/03/28 07:21:45;;;;;;;8.33;2.53;;;;;;;2.99;85.47;97218.91;5036688;28;20250;-67
2023/03/28 07:24:12;;;;;;;10.97;1.37;;;;;;;3.04;83.24;97221.09;5034999;28;20219;-67
2023/03/28 07:26:39;;;;;;;2.57;1.97;;;;;;;3.19;83.85;97224.38;5036440;28;20212;-67
2023/03/28 07:29:06;;;;;;;7.27;2.33;;;;;;;3.10;85.24;97233.66;5035750;28;20254;-68
2023/03/28 07:31:33;;;;;;;2.23;1.60;;;;;;;3.01;83.59;97241.28;5035893;28;20719;-68
2023/03/28 07:33:59;;;;;;;2.20;1.60;;;;;;;3.05;85.11;97237.53;5034958;28;20391;-67
2023/03/28 07:36:27;;;;;;;4.87;1.53;;;;;;;3.07;83.18;97243.47;5035710;28;20952;-67
2023/03/28 07:38:54;;;;;;;5.73;1.80;;;;;;;3.05;83.35;97242.72;5034888;28;20314;-67
2023/03/28 07:41:21;;;;;;;2.00;1.70;;;;;;;3.31;83.93;97244.31;5035672;28;20412;-67
2023/03/28 07:43:49;;;;;;;4.30;2.27;;;;;;;3.35;81.53;97245.78;5035689;28;20300;-68
2023/03/28 07:46:16;;;;;;;2.30;1.67;;;;;;;3.27;81.84;97253.28;5035425;28;20417;-68
2023/03/28 07:48:45;;;;;;;3.53;2.10;;;;;;;3.27;80.47;97254.16;5032426;28;20319;-68
2023/03/28 07:51:11;;;;;;;4.27;2.23;;;;;;;3.42;77.73;97257.44;5033512;28;20239;-68
2023/03/28 07:53:38;;;;;;;18.00;2.67;;;;;;;3.58;79.08;97256.22;5034633;28;20231;-68
2023/03/28 07:56:09;;;;;;;10.20;3.07;;;;;;;3.54;81.08;97265.22;5034672;28;20677;-68
2023/03/28 07:58:35;;;;;;;4.80;2.10;;;;;;;3.45;78.50;97263.25;5034033;28;20204;-68
2023/03/28 08:01:06;;;;;;;4.23;1.87;;;;;;;3.49;80.28;97263.84;5031223;28;20213;-67
2023/03/28 08:03:32;;;;;;;6.80;2.33;;;;;;;3.35;80.92;97269.25;5032685;28;20205;-67
2023/03/28 08:06:01;;;;;;;5.10;2.87;;;;;;;3.46;82.53;97271.91;5034485;28;20200;-68
2023/03/28 08:08:29;;;;;;;8.43;2.40;;;;;;;3.50;80.15;97270.72;5035490;28;20215;-68
2023/03/28 08:10:55;;;;;;;7.53;2.70;;;;;;;3.67;81.98;97274.63;5032479;28;20282;-68
2023/03/28 08:13:23;;;;;;;3.77;2.00;;;;;;;3.39;81.43;97268.06;5034262;28;20240;-68
2023/03/28 08:15:50;;;;;;;11.73;2.47;;;;;;;3.42;79.47;97276.47;5033533;28;20208;-68
2023/03/28 08:18:19;;;;;;;4.53;2.07;;;;;;;3.65;81.30;97262.66;5033220;28;20292;-68
2023/03/28 08:20:46;;;;;;;9.73;2.53;;;;;;;3.66;80.18;97264.31;5030713;28;20292;-68
2023/03/28 08:23:13;;;;;;;7.93;2.37;;;;;;;3.79;79.16;97263.34;5034288;28;20241;-68
2023/03/28 08:25:40;;;;;;;1.83;1.70;;;;;;;3.95;76.71;97266.47;5034005;28;20204;-68
2023/03/28 08:28:06;;;;;;;4.17;2.00;;;;;;;3.90;75.50;97265.97;5034939;28;20255;-68
2023/03/28 08:30:33;;;;;;;4.63;2.00;;;;;;;3.95;75.10;97266.47;5037574;28;20270;-68
2023/03/28 08:33:02;;;;;;;6.07;2.20;;;;;;;4.22;74.62;97262.66;5034921;28;20228;-68
2023/03/28 08:35:30;;;;;;;10.60;3.40;;;;;;;4.00;73.42;97272.19;5030830;28;20562;-67
2023/03/28 08:37:57;;;;;;;5.70;3.03;;;;;;;4.07;75.34;97264.75;5034811;28;20209;-68
2023/03/28 08:40:27;;;;;;;7.43;3.63;;;;;;;4.24;78.16;97270.38;5035506;28;20201;-68
2023/03/28 08:43:08;;;;;;;9.80;2.93;;;;;;;4.21;75.55;97268.00;5034410;28;20283;-68
2023/03/28 08:45:43;;;;;;;8.53;2.57;;;;;;;4.14;75.64;97277.22;5033266;28;20205;-68
2023/03/28 08:48:21;;;;;;;5.30;2.50;;;;;;;4.01;77.21;97280.81;5036191;28;20220;-68
2023/03/28 08:50:53;;;;;;;8.27;1.73;;;;;;;4.13;76.10;97274.72;5035451;28;20208;-67
2023/03/28 08:53:26;;;;;;;7.93;2.10;;;;;;;4.02;73.98;97279.91;5035470;28;20260;-67
2023/03/28 08:55:55;;;;;;;2.83;1.70;;;;;;;3.90;74.36;97276.41;5035475;28;20209;-68
2023/03/28 08:58:23;;;;;;;2.53;1.80;;;;;;;3.90;71.44;97278.19;5035729;28;20243;-68
2023/03/28 09:00:52;;;;;;;2.43;1.90;;;;;;;4.01;72.56;97268.63;5035223;28;20673;-68
2023/03/28 09:03:20;;;;;;;8.00;2.07;;;;;;;3.80;74.48;97280.63;5036312;28;20228;-68
2023/03/28 09:05:51;;;;;;;5.80;2.30;;;;;;;3.97;74.10;97277.63;5035198;28;20216;-68
2023/03/28 09:08:47;;;;;;;3.20;1.50;;;;;;;4.22;69.74;97283.53;5036376;28;20205;-68
2023/03/28 09:11:26;;;;;;;2.17;1.70;;;;;;;4.55;69.70;97275.78;5035019;28;20208;-67
2023/03/28 09:14:06;;;;;;;4.07;2.10;;;;;;;4.65;67.46;97270.72;5034155;28;20331;-68
2023/03/28 09:16:47;;;;;;;1.83;1.30;;;;;;;4.70;64.41;97273.78;5035927;28;20212;-68
2023/03/28 09:19:29;;;;;;;5.10;1.73;;;;;;;4.89;64.69;97272.31;5036404;28;20208;-68
2023/03/28 09:22:10;;;;;;;3.20;1.50;;;;;;;5.14;63.86;97275.50;5035107;28;20228;-67
2023/03/28 09:24:53;;;;;;;1.40;1.30;;;;;;;5.22;66.17;97269.66;5034116;28;20308;-69
2023/03/28 09:27:25;;;;;;;4.63;2.07;;;;;;;5.28;67.94;97270.00;5035173;28;20227;-67
2023/03/28 09:29:56;;;;;;;2.20;1.60;;;;;;;5.27;69.30;97270.13;5035460;28;20221;-66
2023/03/28 09:32:27;;;;;;;2.97;1.80;;;;;;;4.94;68.42;97272.78;5035092;28;20224;-65
2023/03/28 09:34:55;;;;;;;1.73;1.30;;;;;;;4.74;68.02;97275.25;5034419;28;20228;-68
2023/03/28 09:37:32;;;;;;;5.40;1.97;;;;;;;4.71;69.17;97276.31;5034713;28;20316;-66
2023/03/28 09:40:06;;;;;;;7.07;2.20;;;;;;;4.85;68.84;97276.91;5035267;28;20301;-65
2023/03/28 09:42:43;;;;;;;2.70;1.87;;;;;;;4.89;65.14;97270.50;5031818;28;20251;-67
2023/03/28 09:45:29;;;;;;;2.10;1.47;;;;;;;5.20;64.96;97272.41;5033353;28;20209;-68
2023/03/28 09:47:56;;;;;;;5.77;1.57;;;;;;;5.11;64.42;97274.91;5035293;28;20205;-68
2023/03/28 09:50:22;;;;;;;5.20;1.80;;;;;;;5.17;64.23;97264.81;5035456;28;20205;-67
2023/03/28 09:52:50;;;;;;;4.30;1.83;;;;;;;5.20;62.97;97267.19;5035142;28;20254;-65
2023/03/28 09:55:20;;;;;;;3.73;1.73;;;;;;;5.13;62.06;97270.38;5033912;28;21065;-65
2023/03/28 09:58:05;;;;;;;2.80;1.30;;;;;;;5.40;62.25;97269.06;5033974;28;20201;-68
2023/03/28 10:00:37;;;;;;;1.40;1.13;;;;;;;5.35;60.80;97268.59;5034991;28;20220;-68
2023/03/28 10:03:06;;;;;;;3.23;2.13;;;;;;;5.21;61.34;97265.41;5035078;28;20272;-66
2023/03/28 10:05:36;;;;;;;5.80;1.83;;;;;;;5.06;60.54;97271.81;5035232;28;20605;-66
2023/03/28 10:08:18;;;;;;;4.10;1.63;;;;;;;5.29;62.53;97270.88;5033926;28;20197;-68
2023/03/28 10:10:54;;;;;;;5.03;1.83;;;;;;;5.44;61.30;97262.66;5034043;28;20232;-67
2023/03/28 10:13:22;;;;;;;4.90;1.70;;;;;;;5.54;59.60;97260.97;5033072;28;20216;-66
2023/03/28 10:15:49;;;;;;;3.07;1.50;;;;;;;5.54;58.47;97259.19;5031240;28;20205;-68
2023/03/28 10:18:18;;;;;;;3.63;1.87;;;;;;;5.56;61.98;97266.91;5035041;28;20201;-68
2023/03/28 10:20:47;;;;;;;3.30;1.10;;;;;;;5.43;63.10;97263.59;5031687;28;20211;-68
2023/03/28 10:23:16;;;;;;;6.80;1.93;;;;;;;5.49;61.37;97263.13;5034818;28;20729;-68
2023/03/28 10:25:49;;;;;;;6.93;1.60;;;;;;;5.53;60.99;97270.59;5035396;28;20209;-68
2023/03/28 10:28:20;;;;;;;3.13;1.47;;;;;;;5.35;60.00;97265.97;5036766;28;20224;-68
2023/03/28 10:30:53;;;;;;;1.00;0.93;;;;;;;5.37;57.04;97264.06;5036164;28;20201;-68
2023/03/28 10:33:25;;;;;;;6.43;1.37;;;;;;;5.33;58.44;97260.03;5035381;28;20221;-68
2023/03/28 10:35:58;;;;;;;2.03;1.20;;;;;;;5.59;57.75;97248.38;5035110;28;20205;-68
2023/03/28 10:38:33;;;;;;;1.20;1.10;;;;;;;5.98;57.07;97247.78;5036017;28;20197;-68
2023/03/28 10:41:05;;;;;;;8.97;1.60;;;;;;;6.34;56.26;97245.59;5032309;28;20213;-68
2023/03/28 10:43:35;;;;;;;2.10;1.53;;;;;;;6.33;57.17;97249.19;5033440;28;20217;-68
2023/03/28 10:46:05;;;;;;;3.73;1.50;;;;;;;6.25;57.65;97254.19;5034536;28;20209;-68
2023/03/28 10:48:35;;;;;;;1.13;1.03;;;;;;;6.13;58.33;97253.41;5035505;28;20213;-68
2023/03/28 10:51:07;;;;;;;2.00;1.43;;;;;;;5.91;60.17;97252.69;5033116;28;20209;-68
2023/03/28 10:53:52;;;;;;;3.97;1.70;;;;;;;6.36;58.32;97244.50;5032588;28;20216;-69
2023/03/28 10:56:29;;;;;;;1.63;1.17;;;;;;;6.40;56.08;97235.47;5035220;28;20200;-68
2023/03/28 10:59:12;;;;;;;10.47;1.53;;;;;;;6.45;57.15;97238.50;5034840;28;20292;-70
2023/03/28 11:01:50;;;;;;;4.07;1.87;;;;;;;6.53;53.78;97230.88;5034915;28;21430;-67
2023/03/28 11:04:28;;;;;;;2.40;1.30;;;;;;;6.29;55.35;97235.53;5033937;28;20204;-70
2023/03/28 11:07:01;;;;;;;1.40;1.07;;;;;;;6.46;55.75;97234.13;5034806;28;20225;-66
2023/03/28 11:09:38;;;;;;;2.40;0.90;;;;;;;6.72;62.57;97226.56;5033745;28;20700;-67
2023/03/28 11:12:17;;;;;;;2.53;1.50;;;;;;;6.87;58.59;97232.28;5033034;28;20228;-67
2023/03/28 11:14:57;;;;;;;4.13;1.40;;;;;;;6.32;53.55;97221.34;5031336;28;20593;-67
2023/03/28 11:17:33;;;;;;;2.87;1.47;;;;;;;6.59;52.07;97230.34;5032116;28;20193;-71
2023/03/28 11:20:34;;;;;;;2.33;1.23;;;;;;;7.06;51.25;97219.28;5033001;28;20216;-68
2023/03/28 11:23:16;;;;;;;2.80;1.63;;;;;;;6.98;48.93;97219.09;5032569;28;20247;-68
2023/03/28 11:25:52;;;;;;;3.43;1.90;;;;;;;6.90;50.18;97224.19;5032402;28;20197;-68
2023/03/28 11:28:27;;;;;;;3.60;1.63;;;;;;;7.17;49.32;97219.19;5030666;28;20209;-68
2023/03/28 11:30:57;;;;;;;3.27;1.27;;;;;;;7.82;47.02;97220.31;5033647;28;20211;-68
2023/03/28 11:33:29;;;;;;;3.43;0.90;;;;;;;8.04;47.12;97213.84;5033734;28;20225;-68
2023/03/28 11:36:00;;;;;;;2.13;1.40;;;;;;;8.48;49.80;97209.81;5032964;28;20340;-68
2023/03/28 11:38:31;;;;;;;5.47;2.03;;;;;;;8.82;47.01;97209.16;5031245;28;20205;-68
2023/03/28 11:41:04;;;;;;;5.57;1.83;;;;;;;8.29;48.34;97204.59;5031275;28;20304;-68
2023/03/28 11:43:37;;;;;;;3.57;1.70;;;;;;;7.82;51.42;97202.75;5031852;28;20320;-68
2023/03/28 11:46:08;;;;;;;3.77;1.50;;;;;;;8.02;51.29;97191.31;5031303;28;20294;-68
2023/03/28 11:48:41;;;;;;;5.33;1.50;;;;;;;7.63;50.16;97200.09;5032447;28;20231;-68
2023/03/28 11:51:12;;;;;;;4.80;1.57;;;;;;;7.02;50.29;97197.72;5032469;28;20227;-68
2023/03/28 11:53:43;;;;;;;3.97;1.53;;;;;;;7.05;50.63;97194.88;5032690;28;20727;-68
2023/03/28 11:56:25;;;;;;;3.97;1.70;;;;;;;7.09;50.34;97193.63;5032512;28;21008;-68